PWSweather.com
Personal Weather Stations
Station Observations
WESTON01
WestonSuperMareGB BS22 8RT

WestonSuperMareGB BS22 8RT

Lat: 51.351508, Lon: -2.933373

Elevation: 15

Station Type: Fine Offset WH1080

http://www.westonweather.co.uk

Latest ConditionsUpdated 4:20:02 AM GMT Friday, Jul 21, 2017
Currently Today's Max Today's Min Today's Average
Temperature 58.5°F14.7°C 59.6°F15.3°C 58.4°F14.7°C 59.2°F15.1°C
Dew Point 52.7°F11.5°C 52.7°F11.5°C 48.9°F9.4°C 51.0°F10.6°C
Winds 11.8 mph S19.0 kmh S 13.9 mph SSW22.4 kmh SSW - 11.9 mph 19.2 kmh
Wind Gusts 20.5 mph33.0 kmh 24.1 mph38.8 kmh - -
Humidity 81% 81% 69% 74%
Pressure 29.71 in1006.1 mb 29.77 in1008.1 mb 29.71 in1006.1 mb -
Hour Temp Dew Point Humidity Winds Wind Gusts Pressure Precip Precip Rate Daily Precip Total
04:20 AM 58.5°F14.7°C 52.7°F11.5°C 81% 11.8 mph S19.0 kmh S 20.5 mph33.0 kmh 29.71 in1006.1 mb 0.00 in0.0 mm 0.00 in0.0 mm 0.00 in0.0 mm
04:15 AM 58.5°F14.7°C 52.7°F11.5°C 81% 13.9 mph S22.4 kmh S 20.5 mph33.0 kmh 29.71 in1006.1 mb 0.00 in0.0 mm 0.00 in0.0 mm 0.00 in0.0 mm
04:10 AM 58.5°F14.7°C 52.7°F11.5°C 81% 13.6 mph S21.9 kmh S 19.6 mph31.5 kmh 29.71 in1006.1 mb 0.00 in0.0 mm 0.00 in0.0 mm 0.00 in0.0 mm
04:05 AM 58.5°F14.7°C 52.7°F11.5°C 81% 13.2 mph S21.2 kmh S 17.6 mph28.3 kmh 29.71 in1006.1 mb 0.00 in0.0 mm 0.00 in0.0 mm 0.00 in0.0 mm
04:00 AM 58.5°F14.7°C 52.7°F11.5°C 81% 13.0 mph S20.9 kmh S 17.6 mph28.3 kmh 29.71 in1006.1 mb 0.00 in0.0 mm 0.00 in0.0 mm 0.00 in0.0 mm
03:55 AM 58.5°F14.7°C 52.4°F11.3°C 80% 13.0 mph S20.9 kmh S 20.5 mph33.0 kmh 29.71 in1006.1 mb 0.00 in0.0 mm 0.00 in0.0 mm 0.00 in0.0 mm
03:50 AM 58.5°F14.7°C 52.4°F11.3°C 80% 13.5 mph S21.7 kmh S 20.5 mph33.0 kmh 29.71 in1006.1 mb 0.00 in0.0 mm 0.00 in0.0 mm 0.00 in0.0 mm
03:45 AM 58.4°F14.7°C 52.2°F11.2°C 80% 12.0 mph S19.3 kmh S 17.6 mph28.3 kmh 29.71 in1006.1 mb 0.00 in0.0 mm 0.00 in0.0 mm 0.00 in0.0 mm
03:40 AM 58.4°F14.7°C 51.9°F11.1°C 79% 11.1 mph SSW17.9 kmh SSW 14.3 mph23.0 kmh 29.71 in1006.1 mb 0.00 in0.0 mm 0.00 in0.0 mm 0.00 in0.0 mm
03:35 AM 58.4°F14.7°C 51.9°F11.1°C 79% 11.7 mph SSW18.8 kmh SSW 22.6 mph36.4 kmh 29.71 in1006.1 mb 0.00 in0.0 mm 0.00 in0.0 mm 0.00 in0.0 mm
03:30 AM 58.5°F14.7°C 52.1°F11.2°C 79% 13.7 mph SSW22.0 kmh SSW 22.6 mph36.4 kmh 29.71 in1006.1 mb 0.00 in0.0 mm 0.00 in0.0 mm 0.00 in0.0 mm
03:25 AM 58.7°F14.8°C 51.9°F11.1°C 78% 13.4 mph SSW21.6 kmh SSW 20.5 mph33.0 kmh 29.71 in1006.1 mb 0.00 in0.0 mm 0.00 in0.0 mm 0.00 in0.0 mm
03:20 AM 58.9°F14.9°C 52.1°F11.2°C 78% 12.6 mph S20.3 kmh S 18.4 mph29.6 kmh 29.71 in1006.1 mb 0.00 in0.0 mm 0.00 in0.0 mm 0.00 in0.0 mm
03:15 AM 59.3°F15.2°C 51.7°F10.9°C 76% 11.8 mph S19.0 kmh S 18.4 mph29.6 kmh 29.71 in1006.1 mb 0.00 in0.0 mm 0.00 in0.0 mm 0.00 in0.0 mm
03:10 AM 59.3°F15.2°C 51.7°F10.9°C 76% 10.6 mph S17.1 kmh S 14.6 mph23.5 kmh 29.71 in1006.1 mb 0.00 in0.0 mm 0.00 in0.0 mm 0.00 in0.0 mm
03:05 AM 59.3°F15.2°C 51.3°F10.7°C 75% 12.8 mph SSW20.6 kmh SSW 24.1 mph38.8 kmh 29.71 in1006.1 mb 0.00 in0.0 mm 0.00 in0.0 mm 0.00 in0.0 mm
03:00 AM 59.5°F15.3°C 51.5°F10.8°C 75% 12.3 mph SSW19.8 kmh SSW 24.1 mph38.8 kmh 29.71 in1006.1 mb 0.00 in0.0 mm 0.00 in0.0 mm 0.00 in0.0 mm
02:55 AM 59.5°F15.3°C 51.5°F10.8°C 75% 10.8 mph S17.4 kmh S 17.3 mph27.8 kmh 29.71 in1006.1 mb 0.00 in0.0 mm 0.00 in0.0 mm 0.00 in0.0 mm
02:50 AM 59.5°F15.3°C 51.2°F10.7°C 74% 11.4 mph S18.3 kmh S 20.5 mph33.0 kmh 29.71 in1006.1 mb 0.00 in0.0 mm 0.00 in0.0 mm 0.00 in0.0 mm
02:45 AM 59.5°F15.3°C 51.2°F10.7°C 74% 11.4 mph S18.3 kmh S 20.5 mph33.0 kmh 29.71 in1006.1 mb 0.00 in0.0 mm 0.00 in0.0 mm 0.00 in0.0 mm
02:40 AM 59.5°F15.3°C 51.2°F10.7°C 74% 12.5 mph SSW20.1 kmh SSW 19.6 mph31.5 kmh 29.71 in1006.1 mb 0.00 in0.0 mm 0.00 in0.0 mm 0.00 in0.0 mm
02:35 AM 59.6°F15.3°C 51.3°F10.7°C 74% 13.6 mph S21.9 kmh S 19.6 mph31.5 kmh 29.71 in1006.1 mb 0.00 in0.0 mm 0.00 in0.0 mm 0.00 in0.0 mm
02:30 AM 59.6°F15.3°C 51.3°F10.7°C 74% 12.6 mph SSW20.3 kmh SSW 15.2 mph24.5 kmh 29.71 in1006.1 mb 0.00 in0.0 mm 0.00 in0.0 mm 0.00 in0.0 mm
02:25 AM 59.6°F15.3°C 51.0°F10.6°C 73% 13.9 mph SSW22.4 kmh SSW 21.4 mph34.4 kmh 29.71 in1006.1 mb 0.00 in0.0 mm 0.00 in0.0 mm 0.00 in0.0 mm
02:20 AM 59.6°F15.3°C 51.0°F10.6°C 73% 13.8 mph S22.2 kmh S 21.4 mph34.4 kmh 29.71 in1006.1 mb 0.00 in0.0 mm 0.00 in0.0 mm 0.00 in0.0 mm
02:15 AM 59.6°F15.3°C 51.0°F10.6°C 73% 13.0 mph S20.9 kmh S 17.6 mph28.3 kmh 29.71 in1006.1 mb 0.00 in0.0 mm 0.00 in0.0 mm 0.00 in0.0 mm
02:10 AM 59.6°F15.3°C 51.0°F10.6°C 73% 12.8 mph SSW20.6 kmh SSW 20.2 mph32.5 kmh 29.71 in1006.1 mb 0.00 in0.0 mm 0.00 in0.0 mm 0.00 in0.0 mm
02:05 AM 59.6°F15.3°C 51.0°F10.6°C 73% 12.3 mph SSW19.8 kmh SSW 20.2 mph32.5 kmh 29.71 in1006.1 mb 0.00 in0.0 mm 0.00 in0.0 mm 0.00 in0.0 mm
02:00 AM 59.6°F15.3°C 51.0°F10.6°C 73% 13.0 mph SSW20.9 kmh SSW 20.2 mph32.5 kmh 29.71 in1006.1 mb 0.00 in0.0 mm 0.00 in0.0 mm 0.00 in0.0 mm
01:55 AM 59.5°F15.3°C 51.2°F10.7°C 74% 11.6 mph SSW18.7 kmh SSW 17.6 mph28.3 kmh 29.71 in1006.1 mb 0.00 in0.0 mm 0.00 in0.0 mm 0.00 in0.0 mm
01:50 AM 59.5°F15.3°C 51.2°F10.7°C 74% 11.1 mph SSW17.9 kmh SSW 16.7 mph26.9 kmh 29.74 in1007.1 mb 0.00 in0.0 mm 0.00 in0.0 mm 0.00 in0.0 mm
01:45 AM 59.5°F15.3°C 50.8°F10.4°C 73% 11.3 mph S18.2 kmh S 15.8 mph25.4 kmh 29.74 in1007.1 mb 0.00 in0.0 mm 0.00 in0.0 mm 0.00 in0.0 mm
01:40 AM 59.5°F15.3°C 50.8°F10.4°C 73% 11.4 mph S18.3 kmh S 15.8 mph25.4 kmh 29.74 in1007.1 mb 0.00 in0.0 mm 0.00 in0.0 mm 0.00 in0.0 mm
01:35 AM 59.5°F15.3°C 50.8°F10.4°C 73% 11.2 mph SSW18.0 kmh SSW 16.1 mph25.9 kmh 29.74 in1007.1 mb 0.00 in0.0 mm 0.00 in0.0 mm 0.00 in0.0 mm
01:30 AM 59.5°F15.3°C 50.8°F10.4°C 73% 12.0 mph SSW19.3 kmh SSW 16.1 mph25.9 kmh 29.74 in1007.1 mb 0.00 in0.0 mm 0.00 in0.0 mm 0.00 in0.0 mm
01:25 AM 59.5°F15.3°C 50.8°F10.4°C 73% 11.8 mph SSW19.0 kmh SSW 15.8 mph25.4 kmh 29.74 in1007.1 mb 0.00 in0.0 mm 0.00 in0.0 mm 0.00 in0.0 mm
01:20 AM 59.5°F15.3°C 50.8°F10.4°C 73% 11.4 mph SSW18.3 kmh SSW 15.8 mph25.4 kmh 29.74 in1007.1 mb 0.00 in0.0 mm 0.00 in0.0 mm 0.00 in0.0 mm
01:15 AM 59.3°F15.2°C 50.6°F10.3°C 73% 11.3 mph S18.2 kmh S 14.0 mph22.5 kmh 29.74 in1007.1 mb 0.00 in0.0 mm 0.00 in0.0 mm 0.00 in0.0 mm
01:10 AM 59.3°F15.2°C 50.2°F10.1°C 72% 11.0 mph SSW17.7 kmh SSW 14.0 mph22.5 kmh 29.74 in1007.1 mb 0.00 in0.0 mm 0.00 in0.0 mm 0.00 in0.0 mm
01:05 AM 59.3°F15.2°C 50.2°F10.1°C 72% 10.8 mph S17.4 kmh S 13.7 mph22.0 kmh 29.74 in1007.1 mb 0.00 in0.0 mm 0.00 in0.0 mm 0.00 in0.0 mm
01:00 AM 59.3°F15.2°C 50.2°F10.1°C 72% 11.1 mph S17.9 kmh S 17.6 mph28.3 kmh 29.74 in1007.1 mb 0.00 in0.0 mm 0.00 in0.0 mm 0.00 in0.0 mm
12:55 AM 59.3°F15.2°C 49.9°F9.9°C 71% 11.0 mph S17.7 kmh S 17.6 mph28.3 kmh 29.74 in1007.1 mb 0.00 in0.0 mm 0.00 in0.0 mm 0.00 in0.0 mm
12:50 AM 59.1°F15.1°C 49.7°F9.8°C 71% 11.1 mph S17.9 kmh S 19.0 mph30.6 kmh 29.74 in1007.1 mb 0.00 in0.0 mm 0.00 in0.0 mm 0.00 in0.0 mm
12:45 AM 59.1°F15.1°C 49.7°F9.8°C 71% 12.2 mph S19.6 kmh S 19.0 mph30.6 kmh 29.74 in1007.1 mb 0.00 in0.0 mm 0.00 in0.0 mm 0.00 in0.0 mm
12:40 AM 59.1°F15.1°C 49.7°F9.8°C 71% 11.8 mph S19.0 kmh S 16.4 mph26.4 kmh 29.74 in1007.1 mb 0.00 in0.0 mm 0.00 in0.0 mm 0.00 in0.0 mm
12:35 AM 59.1°F15.1°C 49.7°F9.8°C 71% 10.6 mph S17.1 kmh S 14.6 mph23.5 kmh 29.74 in1007.1 mb 0.00 in0.0 mm 0.00 in0.0 mm 0.00 in0.0 mm
12:30 AM 59.1°F15.1°C 49.3°F9.6°C 70% 9.8 mph S15.8 kmh S 17.3 mph27.8 kmh 29.74 in1007.1 mb 0.00 in0.0 mm 0.00 in0.0 mm 0.00 in0.0 mm
12:25 AM 59.1°F15.1°C 49.3°F9.6°C 70% 9.8 mph S15.8 kmh S 17.3 mph27.8 kmh 29.74 in1007.1 mb 0.00 in0.0 mm 0.00 in0.0 mm 0.00 in0.0 mm
12:20 AM 59.1°F15.1°C 49.3°F9.6°C 70% 8.7 mph S14.0 kmh S 13.7 mph22.0 kmh 29.77 in1008.1 mb 0.00 in0.0 mm 0.00 in0.0 mm 0.00 in0.0 mm
12:15 AM 59.1°F15.1°C 48.9°F9.4°C 69% 9.3 mph SSW15.0 kmh SSW 15.2 mph24.5 kmh 29.77 in1008.1 mb 0.00 in0.0 mm 0.00 in0.0 mm 0.00 in0.0 mm
12:10 AM 59.1°F15.1°C 48.9°F9.4°C 69% 11.0 mph SSW17.7 kmh SSW 15.2 mph24.5 kmh 29.77 in1008.1 mb 0.00 in0.0 mm 0.00 in0.0 mm 0.00 in0.0 mm
12:05 AM 59.1°F15.1°C 48.9°F9.4°C 69% 11.2 mph SSW18.0 kmh SSW 13.7 mph22.0 kmh 29.77 in1008.1 mb 0.00 in0.0 mm 0.00 in0.0 mm 0.00 in0.0 mm
12:00 AM 59.1°F15.1°C 48.9°F9.4°C 69% 11.0 mph S17.7 kmh S 16.1 mph25.9 kmh 29.77 in1008.1 mb 0.00 in0.0 mm 0.00 in0.0 mm 0.00 in0.0 mm